sensor_id;sensor_type;location;lat;lon;timestamp;pressure;altitude;pressure_sealevel;temperature
42673;BMP280;28284;46.514;30.724;2023-06-22T00:01:18;100995.91;;;22.73
42673;BMP280;28284;46.514;30.724;2023-06-22T00:03:43;100994.81;;;22.70
42673;BMP280;28284;46.514;30.724;2023-06-22T00:06:08;100994.19;;;22.66
42673;BMP280;28284;46.514;30.724;2023-06-22T00:08:33;100995.41;;;22.65
42673;BMP280;28284;46.514;30.724;2023-06-22T00:10:59;101001.34;;;22.64
42673;BMP280;28284;46.514;30.724;2023-06-22T00:13:24;101000.00;;;22.68
42673;BMP280;28284;46.514;30.724;2023-06-22T00:15:49;101003.53;;;22.69
42673;BMP280;28284;46.514;30.724;2023-06-22T00:18:15;101007.09;;;22.69
42673;BMP280;28284;46.514;30.724;2023-06-22T00:20:41;101007.09;;;22.69
42673;BMP280;28284;46.514;30.724;2023-06-22T00:23:07;101003.53;;;22.69
42673;BMP280;28284;46.514;30.724;2023-06-22T00:25:36;101011.06;;;22.68
42673;BMP280;28284;46.514;30.724;2023-06-22T00:28:02;101010.28;;;22.68
42673;BMP280;28284;46.514;30.724;2023-06-22T00:30:28;101014.28;;;22.67
42673;BMP280;28284;46.514;30.724;2023-06-22T00:32:54;101009.63;;;22.64
42673;BMP280;28284;46.514;30.724;2023-06-22T00:35:19;101017.63;;;22.62
42673;BMP280;28284;46.514;30.724;2023-06-22T00:37:44;101020.53;;;22.58
42673;BMP280;28284;46.514;30.724;2023-06-22T00:40:10;101017.88;;;22.55
42673;BMP280;28284;46.514;30.724;2023-06-22T00:42:37;101021.56;;;22.52
42673;BMP280;28284;46.514;30.724;2023-06-22T00:45:02;101015.69;;;22.50
42673;BMP280;28284;46.514;30.724;2023-06-22T00:47:27;101013.38;;;22.48
42673;BMP280;28284;46.514;30.724;2023-06-22T00:49:53;101018.16;;;22.48
42673;BMP280;28284;46.514;30.724;2023-06-22T00:52:19;101015.38;;;22.48
42673;BMP280;28284;46.514;30.724;2023-06-22T00:54:50;101014.59;;;22.47
42673;BMP280;28284;46.514;30.724;2023-06-22T00:57:16;101011.50;;;22.45
42673;BMP280;28284;46.514;30.724;2023-06-22T00:59:42;101010.75;;;22.45
42673;BMP280;28284;46.514;30.724;2023-06-22T01:02:07;101014.75;;;22.44
42673;BMP280;28284;46.514;30.724;2023-06-22T01:04:36;101014.41;;;22.42
42673;BMP280;28284;46.514;30.724;2023-06-22T01:07:16;101011.34;;;22.40
42673;BMP280;28284;46.514;30.724;2023-06-22T01:09:51;101015.75;;;22.37
42673;BMP280;28284;46.514;30.724;2023-06-22T01:12:18;101017.41;;;22.35
42673;BMP280;28284;46.514;30.724;2023-06-22T01:14:50;101010.03;;;22.32
42673;BMP280;28284;46.514;30.724;2023-06-22T01:17:17;101018.00;;;22.30
42673;BMP280;28284;46.514;30.724;2023-06-22T01:19:51;101023.19;;;22.28
42673;BMP280;28284;46.514;30.724;2023-06-22T01:22:27;101026.41;;;22.27
42673;BMP280;28284;46.514;30.724;2023-06-22T01:30:19;101022.13;;;22.26
42673;BMP280;28284;46.514;30.724;2023-06-22T01:32:45;101025.31;;;22.24
42673;BMP280;28284;46.514;30.724;2023-06-22T01:35:11;101021.47;;;22.22
42673;BMP280;28284;46.514;30.724;2023-06-22T01:37:37;101021.91;;;22.20
42673;BMP280;28284;46.514;30.724;2023-06-22T01:40:02;101025.88;;;22.19
42673;BMP280;28284;46.514;30.724;2023-06-22T01:42:30;101027.91;;;22.19
42673;BMP280;28284;46.514;30.724;2023-06-22T01:44:56;101032.63;;;22.18
42673;BMP280;28284;46.514;30.724;2023-06-22T01:47:22;101033.84;;;22.17
42673;BMP280;28284;46.514;30.724;2023-06-22T01:49:47;101031.50;;;22.16
42673;BMP280;28284;46.514;30.724;2023-06-22T01:52:13;101035.50;;;22.15
42673;BMP280;28284;46.514;30.724;2023-06-22T01:54:39;101032.75;;;22.15
42673;BMP280;28284;46.514;30.724;2023-06-22T01:57:05;101036.72;;;22.14
42673;BMP280;28284;46.514;30.724;2023-06-22T01:59:37;101037.16;;;22.12
42673;BMP280;28284;46.514;30.724;2023-06-22T02:02:06;101035.16;;;22.13
42673;BMP280;28284;46.514;30.724;2023-06-22T02:04:37;101032.88;;;22.11
42673;BMP280;28284;46.514;30.724;2023-06-22T02:07:08;101032.88;;;22.11
42673;BMP280;28284;46.514;30.724;2023-06-22T02:09:34;101039.03;;;22.15
42673;BMP280;28284;46.514;30.724;2023-06-22T02:12:00;101043.41;;;22.25
42673;BMP280;28284;46.514;30.724;2023-06-22T02:14:27;101047.66;;;22.38
42673;BMP280;28284;46.514;30.724;2023-06-22T02:16:52;101051.00;;;22.55
42673;BMP280;28284;46.514;30.724;2023-06-22T02:19:22;101045.63;;;22.73
42673;BMP280;28284;46.514;30.724;2023-06-22T02:21:47;101042.53;;;22.92
42673;BMP280;28284;46.514;30.724;2023-06-22T02:24:12;101054.59;;;23.16
42673;BMP280;28284;46.514;30.724;2023-06-22T02:26:38;101055.94;;;23.42
42673;BMP280;28284;46.514;30.724;2023-06-22T02:29:04;101057.41;;;23.73
42673;BMP280;28284;46.514;30.724;2023-06-22T02:31:30;101064.06;;;24.02
42673;BMP280;28284;46.514;30.724;2023-06-22T02:33:58;101075.00;;;24.41
42673;BMP280;28284;46.514;30.724;2023-06-22T02:36:23;101070.47;;;24.79
42673;BMP280;28284;46.514;30.724;2023-06-22T02:38:51;101077.09;;;25.23
42673;BMP280;28284;46.514;30.724;2023-06-22T02:41:17;101083.50;;;25.70
42673;BMP280;28284;46.514;30.724;2023-06-22T02:43:44;101089.47;;;26.15
42673;BMP280;28284;46.514;30.724;2023-06-22T02:46:10;101089.34;;;26.62
42673;BMP280;28284;46.514;30.724;2023-06-22T02:48:35;101090.81;;;27.06
42673;BMP280;28284;46.514;30.724;2023-06-22T02:51:00;101094.56;;;27.51
42673;BMP280;28284;46.514;30.724;2023-06-22T02:53:25;101097.38;;;27.96
42673;BMP280;28284;46.514;30.724;2023-06-22T02:55:51;101099.97;;;28.45
42673;BMP280;28284;46.514;30.724;2023-06-22T02:58:16;101104.41;;;28.87
42673;BMP280;28284;46.514;30.724;2023-06-22T03:00:41;101112.38;;;29.41
42673;BMP280;28284;46.514;30.724;2023-06-22T03:03:07;101108.28;;;29.89
42673;BMP280;28284;46.514;30.724;2023-06-22T03:05:32;101112.44;;;30.37
42673;BMP280;28284;46.514;30.724;2023-06-22T03:07:57;101122.59;;;30.95
42673;BMP280;28284;46.514;30.724;2023-06-22T03:10:23;101114.84;;;31.44
42673;BMP280;28284;46.514;30.724;2023-06-22T03:12:48;101115.38;;;31.88
42673;BMP280;28284;46.514;30.724;2023-06-22T03:15:13;101124.28;;;32.27
42673;BMP280;28284;46.514;30.724;2023-06-22T03:17:39;101122.97;;;32.62
42673;BMP280;28284;46.514;30.724;2023-06-22T03:20:05;101110.22;;;32.91
42673;BMP280;28284;46.514;30.724;2023-06-22T03:22:38;101139.41;;;33.48
42673;BMP280;28284;46.514;30.724;2023-06-22T03:25:04;101147.47;;;33.93
42673;BMP280;28284;46.514;30.724;2023-06-22T03:27:29;101147.00;;;34.39
42673;BMP280;28284;46.514;30.724;2023-06-22T03:29:56;101155.88;;;34.87
42673;BMP280;28284;46.514;30.724;2023-06-22T03:32:21;101150.31;;;35.33
42673;BMP280;28284;46.514;30.724;2023-06-22T03:34:47;101167.38;;;35.73
42673;BMP280;28284;46.514;30.724;2023-06-22T03:37:13;101164.44;;;36.12
42673;BMP280;28284;46.514;30.724;2023-06-22T03:39:39;101175.63;;;36.45
42673;BMP280;28284;46.514;30.724;2023-06-22T03:42:04;101174.78;;;36.78
42673;BMP280;28284;46.514;30.724;2023-06-22T03:44:29;101174.91;;;37.00
42673;BMP280;28284;46.514;30.724;2023-06-22T03:46:55;101186.28;;;37.15
42673;BMP280;28284;46.514;30.724;2023-06-22T03:49:20;101184.16;;;37.43
42673;BMP280;28284;46.514;30.724;2023-06-22T03:51:45;101200.09;;;37.68
42673;BMP280;28284;46.514;30.724;2023-06-22T03:54:11;101186.94;;;37.85
42673;BMP280;28284;46.514;30.724;2023-06-22T03:56:36;101193.97;;;38.06
42673;BMP280;28284;46.514;30.724;2023-06-22T03:59:03;101198.16;;;38.35
42673;BMP280;28284;46.514;30.724;2023-06-22T04:01:28;101204.00;;;38.67
42673;BMP280;28284;46.514;30.724;2023-06-22T04:03:53;101194.66;;;39.03
42673;BMP280;28284;46.514;30.724;2023-06-22T04:06:19;101203.78;;;39.41
42673;BMP280;28284;46.514;30.724;2023-06-22T04:08:45;101205.47;;;39.75
42673;BMP280;28284;46.514;30.724;2023-06-22T04:11:13;101220.84;;;39.97
42673;BMP280;28284;46.514;30.724;2023-06-22T04:13:38;101214.97;;;40.43
42673;BMP280;28284;46.514;30.724;2023-06-22T04:16:03;101217.66;;;40.91
42673;BMP280;28284;46.514;30.724;2023-06-22T04:18:29;101221.09;;;41.23
42673;BMP280;28284;46.514;30.724;2023-06-22T04:20:54;101222.69;;;41.43
42673;BMP280;28284;46.514;30.724;2023-06-22T04:23:20;101229.81;;;41.78
42673;BMP280;28284;46.514;30.724;2023-06-22T04:25:45;101232.66;;;42.13
42673;BMP280;28284;46.514;30.724;2023-06-22T04:28:10;101229.41;;;42.45
42673;BMP280;28284;46.514;30.724;2023-06-22T04:30:37;101227.78;;;42.70
42673;BMP280;28284;46.514;30.724;2023-06-22T04:33:11;101230.19;;;43.01
42673;BMP280;28284;46.514;30.724;2023-06-22T04:35:36;101228.78;;;43.31
42673;BMP280;28284;46.514;30.724;2023-06-22T04:38:01;101232.28;;;43.59
42673;BMP280;28284;46.514;30.724;2023-06-22T04:40:28;101231.38;;;43.66
42673;BMP280;28284;46.514;30.724;2023-06-22T04:42:53;101221.97;;;43.54
42673;BMP280;28284;46.514;30.724;2023-06-22T04:45:19;101229.69;;;43.72
42673;BMP280;28284;46.514;30.724;2023-06-22T04:47:45;101227.69;;;43.84
42673;BMP280;28284;46.514;30.724;2023-06-22T04:50:10;101226.31;;;44.15
42673;BMP280;28284;46.514;30.724;2023-06-22T04:52:36;101201.84;;;44.12
42673;BMP280;28284;46.514;30.724;2023-06-22T04:55:02;101237.56;;;44.64
42673;BMP280;28284;46.514;30.724;2023-06-22T04:57:28;101235.59;;;45.10
42673;BMP280;28284;46.514;30.724;2023-06-22T04:59:58;101237.88;;;45.23
42673;BMP280;28284;46.514;30.724;2023-06-22T05:02:32;101245.00;;;45.45
42673;BMP280;28284;46.514;30.724;2023-06-22T05:04:57;101242.59;;;45.18
42673;BMP280;28284;46.514;30.724;2023-06-22T05:07:23;101235.56;;;44.67
42673;BMP280;28284;46.514;30.724;2023-06-22T05:09:50;101239.41;;;44.18
42673;BMP280;28284;46.514;30.724;2023-06-22T05:12:15;101240.47;;;43.83
42673;BMP280;28284;46.514;30.724;2023-06-22T05:14:41;101240.84;;;43.59
42673;BMP280;28284;46.514;30.724;2023-06-22T05:17:06;101237.03;;;43.45
42673;BMP280;28284;46.514;30.724;2023-06-22T05:19:38;101239.88;;;43.45
42673;BMP280;28284;46.514;30.724;2023-06-22T05:22:04;101238.66;;;43.48
42673;BMP280;28284;46.514;30.724;2023-06-22T05:24:29;101241.81;;;43.52
42673;BMP280;28284;46.514;30.724;2023-06-22T05:26:54;101239.53;;;43.51
42673;BMP280;28284;46.514;30.724;2023-06-22T05:29:20;101249.72;;;43.63
42673;BMP280;28284;46.514;30.724;2023-06-22T05:31:47;101252.84;;;43.76
42673;BMP280;28284;46.514;30.724;2023-06-22T05:34:12;101256.69;;;43.51
42673;BMP280;28284;46.514;30.724;2023-06-22T05:36:38;101253.34;;;43.64
42673;BMP280;28284;46.514;30.724;2023-06-22T05:39:10;101250.59;;;44.05
42673;BMP280;28284;46.514;30.724;2023-06-22T05:41:36;101259.22;;;44.26
42673;BMP280;28284;46.514;30.724;2023-06-22T05:44:02;101263.22;;;44.32
42673;BMP280;28284;46.514;30.724;2023-06-22T05:46:27;101255.47;;;44.65
42673;BMP280;28284;46.514;30.724;2023-06-22T05:48:52;101258.94;;;44.95
42673;BMP280;28284;46.514;30.724;2023-06-22T05:51:18;101257.56;;;44.96
42673;BMP280;28284;46.514;30.724;2023-06-22T05:53:43;101269.41;;;45.02
42673;BMP280;28284;46.514;30.724;2023-06-22T05:56:09;101264.84;;;45.09
42673;BMP280;28284;46.514;30.724;2023-06-22T05:58:35;101262.84;;;45.00
42673;BMP280;28284;46.514;30.724;2023-06-22T06:01:00;101266.25;;;44.87
42673;BMP280;28284;46.514;30.724;2023-06-22T06:03:25;101273.41;;;44.97
42673;BMP280;28284;46.514;30.724;2023-06-22T06:05:53;101281.56;;;45.23
42673;BMP280;28284;46.514;30.724;2023-06-22T06:08:19;101286.03;;;45.15
42673;BMP280;28284;46.514;30.724;2023-06-22T06:10:44;101280.38;;;45.06
42673;BMP280;28284;46.514;30.724;2023-06-22T06:13:09;101274.28;;;45.00
42673;BMP280;28284;46.514;30.724;2023-06-22T06:15:35;101276.59;;;45.24
42673;BMP280;28284;46.514;30.724;2023-06-22T06:18:00;101284.59;;;45.37
42673;BMP280;28284;46.514;30.724;2023-06-22T06:20:27;101294.06;;;45.62
42673;BMP280;28284;46.514;30.724;2023-06-22T06:22:55;101293.34;;;45.61
42673;BMP280;28284;46.514;30.724;2023-06-22T06:25:21;101290.09;;;45.78
42673;BMP280;28284;46.514;30.724;2023-06-22T06:27:47;101295.97;;;45.80
42673;BMP280;28284;46.514;30.724;2023-06-22T06:30:13;101296.84;;;45.94
42673;BMP280;28284;46.514;30.724;2023-06-22T06:32:39;101295.97;;;45.91
42673;BMP280;28284;46.514;30.724;2023-06-22T06:35:05;101295.97;;;45.80
42673;BMP280;28284;46.514;30.724;2023-06-22T06:37:31;101296.97;;;45.73
42673;BMP280;28284;46.514;30.724;2023-06-22T06:39:56;101292.09;;;45.76
42673;BMP280;28284;46.514;30.724;2023-06-22T06:42:21;101290.78;;;45.88
42673;BMP280;28284;46.514;30.724;2023-06-22T06:44:49;101285.63;;;45.75
42673;BMP280;28284;46.514;30.724;2023-06-22T06:47:15;101293.69;;;45.56
42673;BMP280;28284;46.514;30.724;2023-06-22T06:49:40;101277.31;;;45.24
42673;BMP280;28284;46.514;30.724;2023-06-22T06:52:05;101286.56;;;45.23
42673;BMP280;28284;46.514;30.724;2023-06-22T06:54:31;101281.31;;;45.19
42673;BMP280;28284;46.514;30.724;2023-06-22T06:56:56;101284.50;;;45.03
42673;BMP280;28284;46.514;30.724;2023-06-22T06:59:21;101288.69;;;44.70
42673;BMP280;28284;46.514;30.724;2023-06-22T07:01:47;101294.63;;;44.62
42673;BMP280;28284;46.514;30.724;2023-06-22T07:04:13;101293.28;;;44.75
42673;BMP280;28284;46.514;30.724;2023-06-22T07:06:39;101296.59;;;44.80
42673;BMP280;28284;46.514;30.724;2023-06-22T07:09:04;101297.97;;;44.59
42673;BMP280;28284;46.514;30.724;2023-06-22T07:11:29;101290.41;;;44.42
42673;BMP280;28284;46.514;30.724;2023-06-22T07:13:54;101287.31;;;44.29
42673;BMP280;28284;46.514;30.724;2023-06-22T07:16:20;101295.13;;;43.99
42673;BMP280;28284;46.514;30.724;2023-06-22T07:18:45;101294.31;;;43.87
42673;BMP280;28284;46.514;30.724;2023-06-22T07:21:10;101297.41;;;43.33
42673;BMP280;28284;46.514;30.724;2023-06-22T07:23:36;101290.41;;;43.15
42673;BMP280;28284;46.514;30.724;2023-06-22T07:26:01;101292.22;;;43.01
42673;BMP280;28284;46.514;30.724;2023-06-22T07:28:27;101286.06;;;42.86
42673;BMP280;28284;46.514;30.724;2023-06-22T07:30:52;101285.44;;;42.68
42673;BMP280;28284;46.514;30.724;2023-06-22T07:33:17;101280.78;;;42.63
42673;BMP280;28284;46.514;30.724;2023-06-22T07:35:42;101286.00;;;42.58
42673;BMP280;28284;46.514;30.724;2023-06-22T07:38:09;101290.78;;;42.46
42673;BMP280;28284;46.514;30.724;2023-06-22T07:40:34;101292.41;;;42.30
42673;BMP280;28284;46.514;30.724;2023-06-22T07:43:00;101294.91;;;41.90
42673;BMP280;28284;46.514;30.724;2023-06-22T07:45:25;101299.06;;;41.80
42673;BMP280;28284;46.514;30.724;2023-06-22T07:47:51;101293.06;;;41.59
42673;BMP280;28284;46.514;30.724;2023-06-22T07:50:16;101279.88;;;41.54
42673;BMP280;28284;46.514;30.724;2023-06-22T07:52:41;101279.13;;;41.37
42673;BMP280;28284;46.514;30.724;2023-06-22T07:55:07;101281.16;;;41.11
42673;BMP280;28284;46.514;30.724;2023-06-22T07:57:32;101268.41;;;40.78
42673;BMP280;28284;46.514;30.724;2023-06-22T08:00:02;101272.63;;;40.53
42673;BMP280;28284;46.514;30.724;2023-06-22T08:02:29;101280.28;;;40.50
42673;BMP280;28284;46.514;30.724;2023-06-22T08:04:54;101279.94;;;40.46
42673;BMP280;28284;46.514;30.724;2023-06-22T08:07:19;101270.75;;;40.31
42673;BMP280;28284;46.514;30.724;2023-06-22T08:09:48;101271.84;;;40.11
42673;BMP280;28284;46.514;30.724;2023-06-22T08:12:14;101280.03;;;40.00
42673;BMP280;28284;46.514;30.724;2023-06-22T08:14:41;101276.63;;;39.70
42673;BMP280;28284;46.514;30.724;2023-06-22T08:17:07;101283.91;;;39.49
42673;BMP280;28284;46.514;30.724;2023-06-22T08:19:32;101291.72;;;39.41
42673;BMP280;28284;46.514;30.724;2023-06-22T08:21:57;101283.19;;;39.41
42673;BMP280;28284;46.514;30.724;2023-06-22T08:24:23;101284.19;;;39.28
42673;BMP280;28284;46.514;30.724;2023-06-22T08:26:50;101283.09;;;39.02
42673;BMP280;28284;46.514;30.724;2023-06-22T08:29:16;101288.22;;;38.88
42673;BMP280;28284;46.514;30.724;2023-06-22T08:31:41;101291.22;;;38.61
42673;BMP280;28284;46.514;30.724;2023-06-22T08:34:06;101274.78;;;38.22
42673;BMP280;28284;46.514;30.724;2023-06-22T08:36:32;101282.88;;;38.11
42673;BMP280;28284;46.514;30.724;2023-06-22T08:39:06;101275.06;;;37.89
42673;BMP280;28284;46.514;30.724;2023-06-22T08:41:31;101272.13;;;37.67
42673;BMP280;28284;46.514;30.724;2023-06-22T08:43:57;101257.13;;;37.44
42673;BMP280;28284;46.514;30.724;2023-06-22T08:46:22;101256.94;;;37.42
42673;BMP280;28284;46.514;30.724;2023-06-22T08:48:55;101262.47;;;37.20
42673;BMP280;28284;46.514;30.724;2023-06-22T08:51:20;101266.38;;;36.89
42673;BMP280;28284;46.514;30.724;2023-06-22T08:53:45;101264.19;;;36.75
42673;BMP280;28284;46.514;30.724;2023-06-22T08:56:11;101271.31;;;36.69
42673;BMP280;28284;46.514;30.724;2023-06-22T08:58:36;101266.47;;;36.56
42673;BMP280;28284;46.514;30.724;2023-06-22T09:01:01;101268.59;;;36.43
42673;BMP280;28284;46.514;30.724;2023-06-22T09:03:27;101259.50;;;36.17
42673;BMP280;28284;46.514;30.724;2023-06-22T09:05:52;101258.25;;;35.92
42673;BMP280;28284;46.514;30.724;2023-06-22T09:08:17;101262.16;;;35.89
42673;BMP280;28284;46.514;30.724;2023-06-22T09:10:43;101268.56;;;35.77
42673;BMP280;28284;46.514;30.724;2023-06-22T09:13:08;101262.22;;;35.51
42673;BMP280;28284;46.514;30.724;2023-06-22T09:15:33;101270.19;;;35.21
42673;BMP280;28284;46.514;30.724;2023-06-22T09:17:59;101262.38;;;35.01
42673;BMP280;28284;46.514;30.724;2023-06-22T09:20:25;101264.31;;;34.93
42673;BMP280;28284;46.514;30.724;2023-06-22T09:22:50;101255.84;;;34.80
42673;BMP280;28284;46.514;30.724;2023-06-22T09:25:15;101263.50;;;34.49
42673;BMP280;28284;46.514;30.724;2023-06-22T09:27:41;101265.66;;;34.24
42673;BMP280;28284;46.514;30.724;2023-06-22T09:30:06;101265.72;;;34.19
42673;BMP280;28284;46.514;30.724;2023-06-22T09:32:32;101271.44;;;33.95
42673;BMP280;28284;46.514;30.724;2023-06-22T09:34:57;101259.81;;;33.86
42673;BMP280;28284;46.514;30.724;2023-06-22T09:37:22;101253.56;;;33.75
42673;BMP280;28284;46.514;30.724;2023-06-22T09:39:48;101259.31;;;33.64
42673;BMP280;28284;46.514;30.724;2023-06-22T09:42:13;101256.47;;;33.45
42673;BMP280;28284;46.514;30.724;2023-06-22T09:44:38;101254.09;;;33.26
42673;BMP280;28284;46.514;30.724;2023-06-22T09:47:04;101247.72;;;32.96
42673;BMP280;28284;46.514;30.724;2023-06-22T09:49:29;101247.44;;;32.70
42673;BMP280;28284;46.514;30.724;2023-06-22T09:51:55;101255.72;;;32.52
42673;BMP280;28284;46.514;30.724;2023-06-22T09:54:20;101244.06;;;32.37
42673;BMP280;28284;46.514;30.724;2023-06-22T09:56:46;101252.31;;;32.24
42673;BMP280;28284;46.514;30.724;2023-06-22T09:59:11;101246.25;;;32.09
42673;BMP280;28284;46.514;30.724;2023-06-22T10:01:36;101243.00;;;32.00
42673;BMP280;28284;46.514;30.724;2023-06-22T10:04:02;101251.91;;;31.93
42673;BMP280;28284;46.514;30.724;2023-06-22T10:06:27;101249.72;;;31.70
42673;BMP280;28284;46.514;30.724;2023-06-22T10:08:52;101248.25;;;31.47
42673;BMP280;28284;46.514;30.724;2023-06-22T10:11:18;101241.38;;;31.37
42673;BMP280;28284;46.514;30.724;2023-06-22T10:13:43;101248.28;;;31.14
42673;BMP280;28284;46.514;30.724;2023-06-22T10:16:09;101249.56;;;30.97
42673;BMP280;28284;46.514;30.724;2023-06-22T10:18:36;101254.91;;;30.79
42673;BMP280;28284;46.514;30.724;2023-06-22T10:21:02;101252.06;;;30.68
42673;BMP280;28284;46.514;30.724;2023-06-22T10:23:27;101249.25;;;30.57
42673;BMP280;28284;46.514;30.724;2023-06-22T10:25:52;101246.44;;;30.46
42673;BMP280;28284;46.514;30.724;2023-06-22T10:28:18;101247.84;;;30.25
42673;BMP280;28284;46.514;30.724;2023-06-22T10:30:43;101237.91;;;30.14
42673;BMP280;28284;46.514;30.724;2023-06-22T10:33:09;101244.19;;;30.03
42673;BMP280;28284;46.514;30.724;2023-06-22T10:35:35;101238.31;;;29.96
42673;BMP280;28284;46.514;30.724;2023-06-22T10:38:02;101238.28;;;29.85
42673;BMP280;28284;46.514;30.724;2023-06-22T10:40:28;101235.69;;;29.76
42673;BMP280;28284;46.514;30.724;2023-06-22T10:42:53;101233.63;;;29.71
42673;BMP280;28284;46.514;30.724;2023-06-22T10:45:18;101222.16;;;29.64
42673;BMP280;28284;46.514;30.724;2023-06-22T10:47:44;101225.16;;;29.60
42673;BMP280;28284;46.514;30.724;2023-06-22T10:50:09;101233.00;;;29.56
42673;BMP280;28284;46.514;30.724;2023-06-22T10:52:35;101227.94;;;29.55
42673;BMP280;28284;46.514;30.724;2023-06-22T10:55:00;101232.47;;;29.47
42673;BMP280;28284;46.514;30.724;2023-06-22T10:57:26;101234.16;;;29.39
42673;BMP280;28284;46.514;30.724;2023-06-22T10:59:51;101230.81;;;29.35
42673;BMP280;28284;46.514;30.724;2023-06-22T11:02:16;101237.63;;;29.28
42673;BMP280;28284;46.514;30.724;2023-06-22T11:04:41;101221.19;;;29.30
42673;BMP280;28284;46.514;30.724;2023-06-22T11:07:07;101214.88;;;29.35
42673;BMP280;28284;46.514;30.724;2023-06-22T11:09:32;101224.31;;;29.43
42673;BMP280;28284;46.514;30.724;2023-06-22T11:11:57;101210.16;;;29.52
42673;BMP280;28284;46.514;30.724;2023-06-22T11:14:24;101213.53;;;29.62
42673;BMP280;28284;46.514;30.724;2023-06-22T11:16:49;101223.66;;;29.65
42673;BMP280;28284;46.514;30.724;2023-06-22T11:19:15;101208.69;;;29.62
42673;BMP280;28284;46.514;30.724;2023-06-22T11:21:40;101210.19;;;29.58
42673;BMP280;28284;46.514;30.724;2023-06-22T11:29:44;101201.31;;;29.65
42673;BMP280;28284;46.514;30.724;2023-06-22T11:32:09;101194.75;;;29.67
42673;BMP280;28284;46.514;30.724;2023-06-22T11:34:34;101186.63;;;29.64
42673;BMP280;28284;46.514;30.724;2023-06-22T11:37:00;101192.22;;;29.64
42673;BMP280;28284;46.514;30.724;2023-06-22T11:39:25;101194.75;;;29.67
42673;BMP280;28284;46.514;30.724;2023-06-22T11:41:50;101191.97;;;29.73
42673;BMP280;28284;46.514;30.724;2023-06-22T11:44:15;101177.53;;;29.74
42673;BMP280;28284;46.514;30.724;2023-06-22T11:46:41;101180.34;;;29.80
42673;BMP280;28284;46.514;30.724;2023-06-22T11:49:06;101179.13;;;29.86
42673;BMP280;28284;46.514;30.724;2023-06-22T11:51:31;101178.41;;;29.97
42673;BMP280;28284;46.514;30.724;2023-06-22T11:53:57;101184.25;;;30.04
42673;BMP280;28284;46.514;30.724;2023-06-22T11:56:22;101172.09;;;30.13
42673;BMP280;28284;46.514;30.724;2023-06-22T11:58:48;101172.63;;;30.17
42673;BMP280;28284;46.514;30.724;2023-06-22T12:01:13;101159.94;;;30.26
42673;BMP280;28284;46.514;30.724;2023-06-22T12:03:40;101167.34;;;30.40
42673;BMP280;28284;46.514;30.724;2023-06-22T12:06:05;101155.66;;;30.47
42673;BMP280;28284;46.514;30.724;2023-06-22T12:08:30;101156.41;;;30.48
42673;BMP280;28284;46.514;30.724;2023-06-22T12:10:55;101146.25;;;30.50
42673;BMP280;28284;46.514;30.724;2023-06-22T12:13:21;101146.50;;;30.52
42673;BMP280;28284;46.514;30.724;2023-06-22T12:15:46;101146.25;;;30.56
42673;BMP280;28284;46.514;30.724;2023-06-22T12:18:12;101149.03;;;30.61
42673;BMP280;28284;46.514;30.724;2023-06-22T12:20:39;101137.09;;;30.61
42673;BMP280;28284;46.514;30.724;2023-06-22T12:23:04;101136.06;;;30.58
42673;BMP280;28284;46.514;30.724;2023-06-22T12:25:30;101138.63;;;30.51
42673;BMP280;28284;46.514;30.724;2023-06-22T12:27:55;101133.03;;;30.45
42673;BMP280;28284;46.514;30.724;2023-06-22T12:30:20;101139.38;;;30.46
42673;BMP280;28284;46.514;30.724;2023-06-22T12:32:46;101128.97;;;30.41
42673;BMP280;28284;46.514;30.724;2023-06-22T12:35:11;101139.13;;;30.38
42673;BMP280;28284;46.514;30.724;2023-06-22T12:37:40;101144.41;;;30.20
42673;BMP280;28284;46.514;30.724;2023-06-22T12:40:05;101132.72;;;30.11
42673;BMP280;28284;46.514;30.724;2023-06-22T12:42:31;101147.69;;;30.08
42673;BMP280;28284;46.514;30.724;2023-06-22T12:44:56;101153.28;;;30.08
42673;BMP280;28284;46.514;30.724;2023-06-22T12:47:21;101154.81;;;30.09
42673;BMP280;28284;46.514;30.724;2023-06-22T12:49:47;101152.03;;;30.09
42673;BMP280;28284;46.514;30.724;2023-06-22T12:52:12;101148.19;;;30.01
42673;BMP280;28284;46.514;30.724;2023-06-22T12:54:37;101150.97;;;30.01
42673;BMP280;28284;46.514;30.724;2023-06-22T12:57:02;101149.97;;;30.04
42673;BMP280;28284;46.514;30.724;2023-06-22T12:59:28;101139.50;;;29.93
42673;BMP280;28284;46.514;30.724;2023-06-22T13:01:53;101141.03;;;29.89
42673;BMP280;28284;46.514;30.724;2023-06-22T13:04:18;101154.19;;;29.83
42673;BMP280;28284;46.514;30.724;2023-06-22T13:06:47;101159.22;;;29.73
42673;BMP280;28284;46.514;30.724;2023-06-22T13:09:13;101142.69;;;29.65
42673;BMP280;28284;46.514;30.724;2023-06-22T13:11:39;101160.19;;;29.60
42673;BMP280;28284;46.514;30.724;2023-06-22T13:14:04;101143.97;;;29.64
42673;BMP280;28284;46.514;30.724;2023-06-22T13:16:29;101149.03;;;29.65
42673;BMP280;28284;46.514;30.724;2023-06-22T13:18:54;101155.41;;;29.71
42673;BMP280;28284;46.514;30.724;2023-06-22T13:21:20;101134.09;;;29.73
42673;BMP280;28284;46.514;30.724;2023-06-22T13:23:45;101141.47;;;29.76
42673;BMP280;28284;46.514;30.724;2023-06-22T13:26:10;101141.25;;;29.80
42673;BMP280;28284;46.514;30.724;2023-06-22T13:28:35;101141.53;;;29.87
42673;BMP280;28284;46.514;30.724;2023-06-22T13:31:01;101140.25;;;29.94
42673;BMP280;28284;46.514;30.724;2023-06-22T13:33:26;101142.56;;;29.95
42673;BMP280;28284;46.514;30.724;2023-06-22T13:35:51;101139.28;;;30.02
42673;BMP280;28284;46.514;30.724;2023-06-22T13:38:17;101140.53;;;30.01
42673;BMP280;28284;46.514;30.724;2023-06-22T13:40:42;101136.53;;;30.08
42673;BMP280;28284;46.514;30.724;2023-06-22T13:43:08;101130.69;;;30.06
42673;BMP280;28284;46.514;30.724;2023-06-22T13:45:33;101139.53;;;30.04
42673;BMP280;28284;46.514;30.724;2023-06-22T13:47:58;101141.84;;;30.06